METAR Data
IDs: Format: Raw Decoded Include TAF

Data at: 0235 UTC 25 Jan 2020

PAKN 250154Z 34009KT 10SM CLR M16/M21 A2968 RMK AO2 PK WND 35026/0126 SLP052 T11611206
PAKN 250054Z 01011G21KT 10SM CLR M16/M21 A2968 RMK AO2 SLP052 T11561206
PAKN 242354Z 35010KT 10SM SCT030 M16/M21 A2969 RMK AO2 SLP055 T11561206 11156 21189 55013
PAKN 242254Z 34016G24KT 10SM CLR M16/M21 A2967 RMK AO2 PK WND 33026/2243 SLP050 T11611206
PAKN 242154Z 34012KT 10SM CLR M17/M22 A2969 RMK AO2 SLP057 T11721217
PAKN 242054Z 02006KT 10SM SCT029 M18/M22 A2973 RMK AO2 SLP068 T11781222 53004
PAKN 241954Z 34012KT 10SM CLR M18/M22 A2971 RMK AO2 SLP063 T11831222
PAKN 241854Z 35010G21KT 10SM CLR M18/M22 A2971 RMK AO2 SLP061 T11831222
PAKN 241754Z 35010G22KT 10SM CLR M18/M22 A2971 RMK AO2 SLP063 T11831217 11161 21183 56010
PAKN 241654Z AUTO 34010G18KT 10SM CLR M18/M22 A2972 RMK AO2 SLP067 T11781217 TSNO
PAKN 241554Z AUTO 34015G21KT 10SM CLR M17/M21 A2973 RMK AO2 SLP068 T11721211 TSNO
PAKN 241454Z AUTO 34014G23KT 10SM CLR M17/M21 A2974 RMK AO2 SLP073 T11671206 56018 TSNO
PAKN 241354Z AUTO 33015KT 10SM CLR M17/M21 A2976 RMK AO2 SLP078 T11671206 TSNO
PAKN 241254Z 34010KT 10SM CLR M17/M21 A2977 RMK AO2 SLP083 T11721206
PAKN 241154Z 34008KT 10SM CLR M17/M20 A2979 RMK AO2 SLP091 T11671200 11144 21172 56004
PAKN 241054Z 03004KT 10SM CLR M17/M20 A2980 RMK AO2 SLP093 T11721200
PAKN 240954Z 30009KT 10SM CLR M17/M20 A2980 RMK AO2 SLP093 T11671200
PAKN 240854Z 31009KT 10SM CLR M17/M19 A2981 RMK AO2 SLP095 T11671194 411441233 58010
PAKN 240754Z 35008KT 10SM CLR M16/M19 A2982 RMK AO2 SLP101 T11561189
PAKN 240654Z 34012G20KT 10SM CLR M16/M19 A2983 RMK AO2 SLP103 T11561189
PAKN 240554Z 33010KT 10SM CLR M17/M19 A2984 RMK AO2 SLP105 T11671194 11161 21189 58006
PAKN 240454Z AUTO 33010KT 10SM CLR M18/M21 A2985 RMK AO2 SLP109 T11781206 TSNO
PAKN 240354Z 35007KT 10SM CLR M19/M21 A2985 RMK AO2 SLP112 T11891211
PAKN 240254Z 35006KT 10SM CLR M18/M21 A2985 RMK AO2 SLP111 T11831211 58007
PAKN 240154Z 35003KT 10SM CLR M17/M21 A2987 RMK AO2 SLP116 T11721206
PAKN 240054Z 36005KT 10SM CLR M16/M20 A2987 RMK AO2 SLP118 T11611200
PAKN 232354Z 36007KT 10SM CLR M17/M20 A2988 RMK AO2 SLP118 T11671200 11167 21233 58006
PAKN 232254Z 34009KT 10SM CLR M17/M20 A2990 RMK AO2 SLP127 T11721200
PAKN 232154Z 34009KT 10SM CLR M18/M21 A2988 RMK AO2 SLP119 T11831211
PAKN 232054Z 33009KT 10SM CLR M19/M22 A2989 RMK AO2 SLP124 T11891217 51016
PAKN 231954Z 30006KT 10SM CLR M22/M24 A2988 RMK AO2 SLP121 T12171239
PAKN 231854Z 31005KT 10SM CLR M23/M25 A2986 RMK AO2 SLP116 T12281250
PAKN 231754Z AUTO 28004KT 10SM BKN050 M23/M26 A2985 RMK AO2 SLP109 60000 I6000 T12281256 11161 21233 53011 TSNO
PAKN 231654Z AUTO 33003KT 10SM CLR M23/M26 A2983 RMK AO2 SLP103 T12281256 TSNO
PAKN 231554Z AUTO 34006KT 10SM CLR M22/M24 A2982 RMK AO2 SLP101 T12171239 TSNO
PAKN 231454Z AUTO 36007KT 10SM CLR M21/M22 A2981 RMK AO2 SLP098 60000 I1000 I3000 T12061222 53005 TSNO $
PAKN 231441Z AUTO 35005KT 10SM SCT002 M20/M22 A2981 RMK AO2 I1000 T12001222 TSNO $